Sharon Township, Ohio
Current Conditions -  °F | °C
As of 7:52 AM on Thursday 30 Oct 2014 (Local Time) from KMFD Reporting Station
Clear Clear  
Wind Chill: 31°   Ceiling: Unl
Heat Index: 36°   Visibility: 8mi
Dew Point: 35°   Wind: 6mph
Humidity: 97%   Direction: 260°W
Pressure: 30.11"   Gusts: NA
Location:  40.8848°N, 82.6515°W
Report Text: KMFD 301152Z 26005KT 8SM CLR 02/02 A3011 RMK AO2 SLP205 T00220017 10039 20022 53008
Loading
Personal Weather Stations






























Interactive Weather Map
Tropical Storm Tracking
New forecast layout! Learn more

10-Day Weather Forecast

Advertisements
Track Severe Weather on mobile